Time;durP1;ratioP1;P1;durP2;ratioP2;P2;SDS_P1;SDS_P2;PMS_P1;PMS_P2;Temp;Humidity;BMP_temperature;BMP_pressure;BME280_temperature;BME280_humidity;BME280_pressure;Samples;Min_cycle;Max_cycle;Signal;HPM_P1;HPM_P2
2022/07/10 00:00:09;;;;;;;0.43;0.43;;;;;;;31.84;22.59;98242.53;5109164;28;20044;-78
2022/07/10 00:02:36;;;;;;;0.60;0.50;;;;;;;31.93;22.83;98234.75;5115205;28;20059;-78
2022/07/10 00:05:03;;;;;;;1.13;0.75;;;;;;;32.02;22.62;98233.94;5115131;28;20023;-78
2022/07/10 00:07:29;;;;;;;1.20;0.75;;;;;;;31.93;22.75;98236.78;5115035;28;20055;-78
2022/07/10 00:09:55;;;;;;;0.82;0.57;;;;;;;31.83;22.98;98233.25;5115299;28;20038;-77
2022/07/10 00:12:21;;;;;;;0.50;0.50;;;;;;;31.49;23.42;98232.97;5115160;28;20036;-78
2022/07/10 00:14:47;;;;;;;0.85;0.57;;;;;;;31.30;23.59;98237.91;5101760;28;20041;-78
2022/07/10 00:17:14;;;;;;;0.85;0.60;;;;;;;31.52;23.16;98223.50;5074293;28;20072;-78
2022/07/10 00:19:40;;;;;;;0.50;0.50;;;;;;;31.49;22.93;98230.94;5074205;28;20028;-77
2022/07/10 00:22:06;;;;;;;0.52;0.40;;;;;;;31.66;23.08;98222.78;5074127;28;20025;-77
2022/07/10 00:24:32;;;;;;;1.25;0.82;;;;;;;31.63;22.55;98221.69;5073773;28;20025;-77
2022/07/10 00:26:59;;;;;;;0.50;0.40;;;;;;;31.46;23.23;98214.84;5074187;28;20041;-77
2022/07/10 00:29:25;;;;;;;2.65;0.60;;;;;;;31.31;23.15;98223.28;5073766;28;20020;-78
2022/07/10 00:31:51;;;;;;;1.60;0.50;;;;;;;31.49;22.86;98218.78;5075014;28;20032;-78
2022/07/10 00:34:17;;;;;;;2.60;0.70;;;;;;;31.16;23.52;98218.75;5073796;28;20047;-78
2022/07/10 00:36:43;;;;;;;1.83;0.57;;;;;;;31.06;23.72;98214.41;5073760;28;20035;-77
2022/07/10 00:39:10;;;;;;;1.02;0.60;;;;;;;31.11;23.24;98214.53;5073872;28;20035;-78
2022/07/10 00:41:36;;;;;;;2.67;0.73;;;;;;;31.14;23.23;98210.72;5073891;28;20049;-78
2022/07/10 00:44:03;;;;;;;1.05;0.50;;;;;;;31.23;23.11;98204.22;5076337;28;20082;-78
2022/07/10 00:46:31;;;;;;;0.90;0.60;;;;;;;31.27;23.22;98208.44;5087357;28;20054;-78
2022/07/10 00:48:57;;;;;;;0.95;0.73;;;;;;;31.40;22.85;98208.25;5086658;28;20093;-78
2022/07/10 00:51:29;;;;;;;1.42;0.63;;;;;;;31.37;22.74;98197.84;5073885;28;20062;-78
2022/07/10 00:53:56;;;;;;;0.75;0.57;;;;;;;31.37;23.13;98201.47;5081766;28;20031;-78
2022/07/10 00:56:27;;;;;;;1.23;0.75;;;;;;;31.39;23.04;98195.34;5073370;28;20033;-77
2022/07/10 00:58:54;;;;;;;1.10;0.65;;;;;;;31.49;22.84;98191.19;5072973;28;20373;-78
2022/07/10 01:01:22;;;;;;;2.33;0.70;;;;;;;31.54;22.67;98184.84;5088616;28;20535;-77
2022/07/10 01:03:49;;;;;;;0.50;0.50;;;;;;;31.57;22.88;98183.09;5093942;28;20099;-77
2022/07/10 01:06:15;;;;;;;1.50;0.77;;;;;;;31.65;22.86;98187.94;5083718;28;20032;-77
2022/07/10 01:08:43;;;;;;;0.75;0.70;;;;;;;31.63;23.08;98190.47;5073395;28;20503;-77
2022/07/10 01:11:10;;;;;;;0.50;0.50;;;;;;;31.52;23.41;98184.56;5073225;28;20028;-78
2022/07/10 01:13:38;;;;;;;2.15;0.70;;;;;;;31.45;23.26;98181.28;5073157;28;20024;-77
2022/07/10 01:16:04;;;;;;;1.50;0.60;;;;;;;31.73;22.78;98179.84;5073198;28;20072;-78
2022/07/10 01:18:30;;;;;;;0.63;0.60;;;;;;;31.91;22.75;98177.66;5073500;28;20028;-78
2022/07/10 01:20:57;;;;;;;0.63;0.63;;;;;;;31.67;23.46;98179.72;5073205;28;20064;-78
2022/07/10 01:23:24;;;;;;;0.60;0.60;;;;;;;30.44;24.75;98185.72;5081040;28;20031;-78
2022/07/10 01:25:51;;;;;;;1.00;0.70;;;;;;;30.81;24.27;98180.75;5093230;28;20077;-80
2022/07/10 01:28:17;;;;;;;1.20;0.60;;;;;;;31.15;23.91;98178.28;5093122;28;20032;-78
2022/07/10 01:30:44;;;;;;;0.90;0.52;;;;;;;31.53;23.65;98174.75;5093279;28;20045;-77
2022/07/10 01:33:10;;;;;;;1.85;0.90;;;;;;;31.67;23.46;98168.34;5093222;28;20036;-77
2022/07/10 01:35:36;;;;;;;1.27;0.70;;;;;;;31.75;23.56;98166.72;5093060;28;20028;-78
2022/07/10 01:38:02;;;;;;;0.65;0.65;;;;;;;31.80;23.51;98165.28;5082648;28;20028;-78
2022/07/10 01:40:29;;;;;;;0.80;0.70;;;;;;;31.35;23.70;98158.59;5074194;28;20056;-77
2022/07/10 01:42:55;;;;;;;1.13;0.75;;;;;;;31.44;23.53;98157.78;5072751;28;20039;-78
2022/07/10 01:45:21;;;;;;;1.02;0.93;;;;;;;31.62;23.34;98157.69;5073050;28;20055;-78
2022/07/10 01:47:47;;;;;;;0.73;0.70;;;;;;;31.28;23.33;98147.63;5072735;28;20032;-78
2022/07/10 01:50:13;;;;;;;0.75;0.75;;;;;;;31.01;23.88;98155.50;5073015;28;20112;-78
2022/07/10 01:52:40;;;;;;;1.38;0.70;;;;;;;31.28;23.01;98147.63;5073190;28;20028;-78
2022/07/10 01:55:07;;;;;;;1.30;0.75;;;;;;;31.33;22.74;98144.13;5074934;28;20032;-77
2022/07/10 01:57:33;;;;;;;0.55;0.52;;;;;;;31.47;23.59;98145.47;5090634;28;20040;-77
2022/07/10 01:59:59;;;;;;;2.22;0.68;;;;;;;31.48;23.52;98143.44;5108907;28;20071;-77
2022/07/10 02:02:26;;;;;;;0.60;0.50;;;;;;;31.41;23.06;98141.72;5076867;28;20047;-77
2022/07/10 02:04:52;;;;;;;0.80;0.70;;;;;;;31.28;23.09;98144.00;5076795;28;20024;-77
2022/07/10 02:07:21;;;;;;;0.80;0.70;;;;;;;31.13;23.40;98137.47;5076672;28;20043;-77
2022/07/10 02:09:47;;;;;;;1.50;1.02;;;;;;;31.19;23.49;98135.53;5076943;28;20035;-77
2022/07/10 02:12:15;;;;;;;1.00;0.80;;;;;;;31.28;22.96;98130.59;5076440;28;20411;-77
2022/07/10 02:14:42;;;;;;;2.50;0.77;;;;;;;31.37;23.01;98124.06;5077867;28;20021;-78
2022/07/10 02:17:09;;;;;;;1.48;0.63;;;;;;;31.41;23.34;98128.28;5076441;28;20476;-77
2022/07/10 02:19:35;;;;;;;1.55;0.80;;;;;;;31.48;22.59;98120.72;5076517;28;20039;-77
2022/07/10 02:22:02;;;;;;;0.65;0.60;;;;;;;31.52;22.97;98122.09;5058482;28;20033;-77
2022/07/10 02:24:28;;;;;;;0.60;0.60;;;;;;;31.49;22.93;98117.38;5076159;28;20508;-78
2022/07/10 02:26:55;;;;;;;1.55;0.75;;;;;;;31.50;23.04;98115.34;5075943;28;20048;-77
2022/07/10 02:29:23;;;;;;;0.55;0.50;;;;;;;31.46;23.05;98112.69;5076372;28;20507;-78
2022/07/10 02:31:49;;;;;;;0.60;0.60;;;;;;;31.62;22.78;98109.44;5090114;28;20134;-77
2022/07/10 02:34:15;;;;;;;1.45;0.93;;;;;;;31.61;22.94;98107.84;5096456;28;20031;-77
2022/07/10 02:36:41;;;;;;;0.68;0.68;;;;;;;31.64;22.93;98109.72;5086020;28;20036;-77
2022/07/10 02:39:08;;;;;;;1.00;0.70;;;;;;;31.48;22.99;98104.47;5057073;28;20436;-77
2022/07/10 02:41:38;;;;;;;1.15;0.90;;;;;;;31.40;23.39;98114.59;5075839;28;20032;-78
2022/07/10 02:44:04;;;;;;;2.72;0.90;;;;;;;31.27;23.65;98105.56;5076032;28;20024;-77
2022/07/10 02:46:30;;;;;;;1.00;0.90;;;;;;;31.32;23.72;98110.56;5076239;28;20158;-77
2022/07/10 02:48:56;;;;;;;0.60;0.60;;;;;;;31.49;23.64;98097.53;5076972;28;20032;-77
2022/07/10 02:51:22;;;;;;;0.77;0.77;;;;;;;31.85;23.19;98097.25;5075933;28;20028;-77
2022/07/10 02:53:49;;;;;;;1.13;1.02;;;;;;;31.89;23.07;98094.19;5075553;28;20070;-78
2022/07/10 02:56:15;;;;;;;1.17;0.65;;;;;;;31.55;23.75;98101.28;5075577;28;20040;-78
2022/07/10 02:58:41;;;;;;;0.80;0.80;;;;;;;31.52;23.68;98090.88;5079243;28;20111;-78
2022/07/10 03:01:07;;;;;;;0.93;0.50;;;;;;;31.33;23.94;98097.94;5075472;28;20043;-77
2022/07/10 03:03:34;;;;;;;0.50;0.50;;;;;;;31.17;24.10;98107.66;5075663;28;20392;-78
2022/07/10 03:06:00;;;;;;;0.70;0.60;;;;;;;30.90;24.72;98104.19;5076799;28;20071;-77
2022/07/10 03:08:26;;;;;;;0.50;0.50;;;;;;;30.89;24.97;98103.41;5075435;28;20542;-77
2022/07/10 03:10:52;;;;;;;0.77;0.63;;;;;;;30.88;24.98;98090.47;5075455;28;20437;-78
2022/07/10 03:13:18;;;;;;;0.57;0.57;;;;;;;31.02;24.75;98103.16;5075466;28;20397;-78
2022/07/10 03:15:44;;;;;;;1.02;0.77;;;;;;;30.85;25.12;98094.25;5075450;28;20037;-78
2022/07/10 03:18:10;;;;;;;0.57;0.57;;;;;;;30.80;25.08;98105.47;5075407;28;20068;-78
2022/07/10 03:20:36;;;;;;;2.05;0.98;;;;;;;30.86;24.94;98092.97;5075442;28;20032;-77
2022/07/10 03:23:02;;;;;;;0.93;0.55;;;;;;;31.20;24.73;98088.88;5090887;28;20077;-78
2022/07/10 03:25:28;;;;;;;1.05;0.63;;;;;;;31.60;24.24;98085.63;5095120;28;20035;-77
2022/07/10 03:27:54;;;;;;;1.55;0.50;;;;;;;31.84;23.73;98087.13;5075215;28;20041;-78
2022/07/10 03:30:21;;;;;;;1.63;0.70;;;;;;;31.78;23.51;98082.63;5090811;28;20067;-77
2022/07/10 03:32:47;;;;;;;0.90;0.80;;;;;;;31.59;23.83;98082.00;5075143;28;20032;-78
2022/07/10 03:35:13;;;;;;;2.95;0.80;;;;;;;31.61;23.90;98076.63;5083440;28;20031;-78
2022/07/10 03:37:39;;;;;;;0.60;0.60;;;;;;;31.70;24.04;98084.25;5094957;28;20043;-77
2022/07/10 03:40:06;;;;;;;0.60;0.60;;;;;;;31.44;24.32;98086.84;5060383;28;20049;-78
2022/07/10 03:42:32;;;;;;;0.85;0.70;;;;;;;31.42;24.33;98083.66;5074942;28;20033;-78
2022/07/10 03:44:58;;;;;;;1.00;0.70;;;;;;;31.68;23.99;98079.09;5074872;28;20450;-77
2022/07/10 03:47:24;;;;;;;4.03;0.50;;;;;;;32.12;23.46;98084.06;5078482;28;20046;-78
2022/07/10 03:49:50;;;;;;;0.55;0.55;;;;;;;32.04;23.76;98090.13;5095144;28;20028;-78
2022/07/10 03:52:16;;;;;;;0.52;0.52;;;;;;;31.93;24.34;98086.25;5089187;28;20029;-78
2022/07/10 03:54:42;;;;;;;5.85;0.50;;;;;;;31.79;24.42;98082.13;5087667;28;20036;-77
2022/07/10 03:59:53;;;;;;;0.73;0.60;;;;;;;32.09;24.30;98080.91;5074326;28;20083;-77
2022/07/10 04:02:19;;;;;;;1.00;0.60;;;;;;;32.20;24.50;98074.66;5074539;28;20515;-78
2022/07/10 04:04:45;;;;;;;1.50;0.60;;;;;;;32.24;24.63;98080.13;5074496;28;20107;-78
2022/07/10 04:07:12;;;;;;;0.70;0.65;;;;;;;32.15;24.95;98074.56;5074215;28;20039;-78
2022/07/10 04:09:39;;;;;;;0.73;0.70;;;;;;;32.12;25.14;98064.16;5074593;28;20033;-78
2022/07/10 04:12:05;;;;;;;0.70;0.63;;;;;;;31.93;25.06;98067.16;5074981;28;20032;-78
2022/07/10 04:14:31;;;;;;;0.93;0.60;;;;;;;32.18;24.90;98062.22;5074856;28;20473;-78
2022/07/10 04:16:57;;;;;;;1.23;0.60;;;;;;;32.32;24.75;98059.38;5073604;28;20468;-78
2022/07/10 04:19:23;;;;;;;0.68;0.60;;;;;;;32.47;25.45;98062.97;5074182;28;20447;-78
2022/07/10 04:21:49;;;;;;;1.02;0.68;;;;;;;32.37;25.11;98060.75;5073967;28;20036;-78
2022/07/10 04:24:16;;;;;;;0.77;0.60;;;;;;;31.75;25.11;98067.34;5074092;28;20477;-78
2022/07/10 04:26:42;;;;;;;0.65;0.60;;;;;;;32.15;25.42;98060.34;5073961;28;20033;-78
2022/07/10 04:29:08;;;;;;;0.60;0.52;;;;;;;32.56;24.93;98059.25;5075738;28;20034;-78
2022/07/10 04:31:34;;;;;;;2.08;0.80;;;;;;;32.46;24.36;98055.75;5085434;28;20431;-78
2022/07/10 04:34:00;;;;;;;0.77;0.73;;;;;;;32.41;24.50;98061.31;5084462;28;20088;-78
2022/07/10 04:36:27;;;;;;;1.10;0.70;;;;;;;31.85;25.31;98065.22;5073440;28;20040;-78
2022/07/10 04:38:53;;;;;;;1.10;0.80;;;;;;;31.98;24.93;98074.25;5073796;28;20081;-78
2022/07/10 04:41:19;;;;;;;1.50;0.70;;;;;;;32.05;25.09;98071.03;5073877;28;20032;-78
2022/07/10 04:43:45;;;;;;;1.92;0.82;;;;;;;31.80;25.34;98068.72;5073764;28;20476;-77
2022/07/10 04:46:11;;;;;;;1.20;0.60;;;;;;;31.95;25.13;98069.53;5074427;28;20059;-78
2022/07/10 04:48:37;;;;;;;1.02;0.73;;;;;;;31.70;25.36;98067.22;5091769;28;20024;-78
2022/07/10 04:51:03;;;;;;;2.47;0.95;;;;;;;31.77;25.30;98070.47;5093720;28;20463;-78
2022/07/10 04:53:30;;;;;;;2.53;0.77;;;;;;;31.82;25.16;98060.50;5093894;28;20031;-77
2022/07/10 04:55:56;;;;;;;0.90;0.68;;;;;;;32.00;25.04;98061.13;5093581;28;20028;-78
2022/07/10 04:58:22;;;;;;;0.80;0.60;;;;;;;31.67;25.40;98059.72;5075241;28;20041;-78
2022/07/10 05:00:48;;;;;;;1.00;0.90;;;;;;;31.34;25.95;98054.88;5074549;28;20032;-78
2022/07/10 05:03:15;;;;;;;1.40;0.70;;;;;;;31.50;25.56;98058.56;5073919;28;20029;-78
2022/07/10 05:05:41;;;;;;;0.65;0.65;;;;;;;31.10;26.40;98059.00;5073744;28;20484;-77
2022/07/10 05:08:07;;;;;;;0.70;0.70;;;;;;;31.58;25.63;98051.28;5055496;28;20028;-78
2022/07/10 05:10:34;;;;;;;0.90;0.90;;;;;;;31.59;25.49;98056.44;5073363;28;20060;-78
2022/07/10 05:13:00;;;;;;;1.30;0.80;;;;;;;31.65;25.45;98054.50;5073251;28;20020;-78
2022/07/10 05:15:26;;;;;;;1.73;0.93;;;;;;;30.77;26.55;98051.28;5073262;28;20036;-78
2022/07/10 05:17:52;;;;;;;1.52;0.90;;;;;;;30.95;26.49;98058.16;5073264;28;20035;-78
2022/07/10 05:20:18;;;;;;;1.92;1.20;;;;;;;29.89;27.63;98058.34;5074919;28;20036;-78
2022/07/10 05:22:44;;;;;;;1.20;0.98;;;;;;;30.58;27.16;98052.63;5092648;28;20492;-77
2022/07/10 05:25:10;;;;;;;2.10;1.30;;;;;;;30.75;26.27;98045.31;5075283;28;20067;-78
2022/07/10 05:27:36;;;;;;;1.83;1.40;;;;;;;30.65;26.51;98049.47;5077563;28;20039;-78
2022/07/10 05:30:02;;;;;;;2.92;1.60;;;;;;;30.44;26.98;98050.50;5092528;28;20028;-78
2022/07/10 05:32:29;;;;;;;1.48;1.38;;;;;;;29.85;27.55;98059.78;5084833;28;20036;-77
2022/07/10 05:34:56;;;;;;;2.58;1.25;;;;;;;30.09;28.07;98063.47;5072823;28;20040;-78
2022/07/10 05:37:22;;;;;;;2.67;1.38;;;;;;;29.99;27.84;98064.78;5073631;28;20043;-78
2022/07/10 05:39:49;;;;;;;2.45;1.58;;;;;;;29.73;28.25;98060.69;5092719;28;20043;-78
2022/07/10 05:42:15;;;;;;;2.75;1.35;;;;;;;29.42;28.32;98061.66;5093237;28;20026;-77
2022/07/10 05:44:41;;;;;;;1.85;1.30;;;;;;;28.79;29.17;98052.25;5093133;28;20474;-77
2022/07/10 05:47:07;;;;;;;2.65;1.80;;;;;;;28.91;29.38;98060.59;5085781;28;20041;-78
2022/07/10 05:49:33;;;;;;;2.33;2.00;;;;;;;29.02;28.55;98054.50;5073704;28;20033;-78
2022/07/10 05:51:59;;;;;;;3.08;2.55;;;;;;;29.13;28.80;98064.09;5072903;28;20035;-77
2022/07/10 05:54:25;;;;;;;2.10;1.90;;;;;;;28.77;29.56;98066.84;5070765;28;20044;-77
2022/07/10 05:56:51;;;;;;;2.70;2.30;;;;;;;28.62;28.85;98057.38;5072754;28;20044;-77
2022/07/10 05:59:17;;;;;;;3.17;2.28;;;;;;;28.79;29.48;98063.53;5073268;28;20053;-77
2022/07/10 06:01:43;;;;;;;2.75;2.55;;;;;;;29.45;28.84;98065.59;5072998;28;20056;-78
2022/07/10 06:04:09;;;;;;;2.80;2.17;;;;;;;29.20;28.76;98066.66;5072490;28;20067;-77
2022/07/10 06:06:36;;;;;;;3.55;2.25;;;;;;;30.08;27.38;98061.94;5072859;28;20029;-77
2022/07/10 06:09:02;;;;;;;3.63;2.63;;;;;;;29.22;28.82;98057.72;5084810;28;20097;-78
2022/07/10 06:11:28;;;;;;;2.75;2.50;;;;;;;29.43;28.75;98057.53;5075697;28;20039;-78
2022/07/10 06:13:54;;;;;;;3.83;3.50;;;;;;;28.86;29.32;98072.53;5093075;28;20029;-77
2022/07/10 06:16:39;;;;;;;3.45;2.83;;;;;;;28.96;29.48;98067.69;5092768;28;20169;-77
2022/07/10 06:19:05;;;;;;;4.18;2.95;;;;;;;29.04;29.00;98072.56;5092805;28;20040;-77
2022/07/10 06:21:32;;;;;;;3.60;3.22;;;;;;;29.97;28.27;98070.91;5074969;28;20118;-78
2022/07/10 06:23:58;;;;;;;4.28;3.08;;;;;;;29.54;28.83;98070.44;5092971;28;20035;-77
2022/07/10 06:26:24;;;;;;;3.17;2.85;;;;;;;30.08;28.21;98074.00;5080407;28;20101;-78
2022/07/10 06:28:51;;;;;;;3.55;2.92;;;;;;;30.64;27.15;98078.28;5073881;28;20117;-78
2022/07/10 06:31:17;;;;;;;3.67;2.63;;;;;;;30.99;27.19;98065.22;5082105;28;20502;-77
2022/07/10 06:33:43;;;;;;;3.72;2.40;;;;;;;31.12;26.90;98065.75;5092647;28;20032;-78
2022/07/10 06:36:09;;;;;;;2.55;2.22;;;;;;;30.88;27.19;98050.78;5092872;28;20047;-77
2022/07/10 06:38:35;;;;;;;3.30;2.53;;;;;;;31.49;26.61;98052.13;5092734;28;20051;-78
2022/07/10 06:41:01;;;;;;;2.80;1.90;;;;;;;32.18;26.85;98056.53;5094403;28;20032;-78
2022/07/10 06:43:27;;;;;;;3.47;2.10;;;;;;;32.34;26.01;98056.81;5096572;28;20123;-78
2022/07/10 06:45:54;;;;;;;3.15;1.90;;;;;;;32.47;25.50;98065.03;5076375;28;20032;-78
2022/07/10 06:48:20;;;;;;;2.78;1.95;;;;;;;32.14;24.78;98048.19;5082989;28;20032;-78
2022/07/10 06:50:47;;;;;;;4.57;1.98;;;;;;;31.16;25.56;98035.16;5075890;28;20056;-78
2022/07/10 06:53:13;;;;;;;2.45;1.92;;;;;;;30.16;26.62;98049.00;5091528;28;20036;-78
2022/07/10 06:55:39;;;;;;;1.63;1.52;;;;;;;30.63;26.72;98051.19;5087813;28;20020;-78
2022/07/10 06:58:05;;;;;;;2.80;1.75;;;;;;;30.11;26.93;98049.63;5075549;28;20119;-78
2022/07/10 07:00:31;;;;;;;2.38;1.40;;;;;;;30.38;26.94;98043.13;5086559;28;20533;-78
2022/07/10 07:02:58;;;;;;;2.17;1.98;;;;;;;29.96;27.26;98052.34;5094187;28;20040;-77
2022/07/10 07:05:24;;;;;;;3.50;1.55;;;;;;;30.76;25.74;98040.41;5096130;28;20098;-78
2022/07/10 07:07:50;;;;;;;3.25;1.65;;;;;;;31.07;25.42;98052.25;5095930;28;20120;-77
2022/07/10 07:10:16;;;;;;;1.38;1.13;;;;;;;31.00;25.76;98046.94;5095773;28;20032;-78
2022/07/10 07:12:42;;;;;;;1.83;1.50;;;;;;;31.14;25.95;98063.22;5095754;28;20373;-77
2022/07/10 07:15:08;;;;;;;1.50;1.40;;;;;;;30.61;26.64;98057.34;5077421;28;20118;-78
2022/07/10 07:23:10;;;;;;;5.25;1.40;;;;;;;31.87;24.42;98045.63;5075623;28;20046;-77
2022/07/10 07:25:39;;;;;;;2.05;1.38;;;;;;;31.93;23.67;98055.81;5075121;28;20031;-78
2022/07/10 07:28:06;;;;;;;1.45;1.33;;;;;;;29.91;26.68;98052.19;5075011;28;20025;-78
2022/07/10 07:30:32;;;;;;;1.30;1.20;;;;;;;29.52;25.67;98056.78;5090286;28;20025;-78
2022/07/10 07:32:58;;;;;;;2.00;1.23;;;;;;;29.89;26.38;98058.34;5095403;28;20040;-77
2022/07/10 07:35:24;;;;;;;1.42;1.10;;;;;;;30.72;24.96;98059.66;5095293;28;20035;-78
2022/07/10 07:37:51;;;;;;;1.77;1.02;;;;;;;30.52;25.08;98060.22;5093584;28;20589;-78
2022/07/10 07:40:22;;;;;;;4.57;1.30;;;;;;;30.73;25.13;98062.03;5095264;28;20024;-78
2022/07/10 07:42:48;;;;;;;;;;;;;;;30.58;24.35;98052.63;5095638;28;20467;-78
2022/07/10 07:45:15;;;;;;;1.80;1.30;;;;;;;29.88;25.69;98058.81;5095040;28;19912;-78
2022/07/10 07:47:44;;;;;;;1.63;1.30;;;;;;;31.03;23.30;98053.69;5095180;28;20032;-78
2022/07/10 07:50:12;;;;;;;3.92;1.27;;;;;;;29.89;25.48;98063.22;5095139;28;20142;-79
2022/07/10 07:52:38;;;;;;;7.88;1.40;;;;;;;30.51;23.49;98057.84;5094080;28;20046;-78
2022/07/10 07:55:05;;;;;;;1.27;1.10;;;;;;;30.84;23.92;98057.84;5078070;28;20380;-78
2022/07/10 07:57:31;;;;;;;2.75;0.93;;;;;;;31.18;22.91;98052.47;5074523;28;20050;-78
2022/07/10 07:59:57;;;;;;;3.40;0.90;;;;;;;31.35;22.83;98056.44;5080495;28;20058;-78
2022/07/10 08:02:23;;;;;;;1.27;0.95;;;;;;;31.36;23.21;98060.88;5094751;28;20032;-79
2022/07/10 08:04:49;;;;;;;1.80;0.90;;;;;;;32.08;22.26;98059.47;5094729;28;20494;-78
2022/07/10 08:07:15;;;;;;;1.05;0.70;;;;;;;32.46;22.24;98063.47;5094767;28;20032;-79
2022/07/10 08:09:41;;;;;;;1.08;0.82;;;;;;;31.25;23.04;98054.94;5094565;28;20058;-79
2022/07/10 08:12:08;;;;;;;1.63;0.80;;;;;;;30.52;23.48;98062.28;5092862;28;20566;-79
2022/07/10 08:14:34;;;;;;;0.73;0.65;;;;;;;31.13;23.13;98063.72;5094379;28;20024;-78
2022/07/10 08:17:00;;;;;;;2.00;0.80;;;;;;;30.61;23.93;98073.56;5094380;28;20484;-78
2022/07/10 08:19:26;;;;;;;1.10;0.70;;;;;;;30.39;23.69;98073.81;5094399;28;20061;-78
2022/07/10 08:21:52;;;;;;;1.52;0.68;;;;;;;30.72;23.40;98073.81;5076266;28;20032;-78
2022/07/10 08:24:18;;;;;;;2.83;0.73;;;;;;;30.09;24.13;98071.97;5094459;28;20027;-79
2022/07/10 08:26:45;;;;;;;1.70;0.60;;;;;;;30.81;23.25;98065.28;5078848;28;20049;-79
2022/07/10 08:29:11;;;;;;;2.92;0.88;;;;;;;31.36;21.99;98074.28;5074366;28;20496;-78
2022/07/10 08:31:37;;;;;;;1.27;0.73;;;;;;;31.63;21.88;98068.41;5073981;28;20020;-78
2022/07/10 08:34:03;;;;;;;1.08;0.82;;;;;;;31.71;22.64;98054.63;5073902;28;20028;-78
2022/07/10 08:36:29;;;;;;;1.75;0.70;;;;;;;32.20;22.39;98059.66;5074109;28;20070;-78
2022/07/10 08:38:56;;;;;;;1.50;0.60;;;;;;;32.62;21.57;98063.78;5074114;28;20028;-79
2022/07/10 08:41:26;;;;;;;2.13;0.98;;;;;;;31.49;22.55;98054.16;5073778;28;20024;-79
2022/07/10 08:43:52;;;;;;;1.43;0.70;;;;;;;31.13;23.03;98063.72;5073807;28;20427;-78
2022/07/10 08:46:19;;;;;;;0.93;0.45;;;;;;;31.00;23.37;98085.84;5091673;28;20032;-78
2022/07/10 08:48:52;;;;;;;1.20;0.60;;;;;;;30.90;24.60;98085.09;5094081;28;20043;-78
2022/07/10 08:51:39;;;;;;;3.15;0.50;;;;;;;31.69;23.90;98085.56;5075921;28;20093;-78
2022/07/10 08:54:08;;;;;;;0.80;0.60;;;;;;;32.12;24.08;98099.03;5093897;28;20107;-78
2022/07/10 08:56:35;;;;;;;6.00;0.70;;;;;;;32.43;23.16;98090.81;5109155;28;20466;-78
2022/07/10 08:59:04;;;;;;;1.30;0.50;;;;;;;32.11;23.19;98088.97;5093685;28;20066;-78
2022/07/10 09:01:32;;;;;;;1.35;0.68;;;;;;;31.48;24.86;98100.84;5075333;28;20025;-78
2022/07/10 09:03:58;;;;;;;3.15;0.63;;;;;;;31.71;24.66;98103.66;5073634;28;20098;-78
2022/07/10 09:06:25;;;;;;;0.85;0.50;;;;;;;32.00;24.23;98095.22;5073768;28;20027;-78
2022/07/10 09:09:05;;;;;;;0.73;0.50;;;;;;;31.74;24.30;98084.88;5077208;28;20533;-79
2022/07/10 09:11:33;;;;;;;0.77;0.57;;;;;;;32.59;23.85;98081.03;5073451;28;20103;-79
2022/07/10 09:14:04;;;;;;;0.70;0.50;;;;;;;31.87;25.25;98074.81;5073555;28;20035;-78
2022/07/10 09:16:35;;;;;;;2.15;0.77;;;;;;;32.33;22.68;98074.34;5073530;28;20052;-78
2022/07/10 09:19:23;;;;;;;1.05;0.93;;;;;;;33.42;23.35;98077.34;5074302;28;20043;-78
2022/07/10 09:21:51;;;;;;;1.08;0.70;;;;;;;33.21;22.67;98081.47;5055224;28;20063;-79
2022/07/10 09:24:19;;;;;;;1.33;0.50;;;;;;;33.84;22.70;98079.69;5073259;28;20036;-79
2022/07/10 09:27:00;;;;;;;1.50;0.50;;;;;;;33.98;22.49;98086.59;5072722;28;20032;-79
2022/07/10 09:29:26;;;;;;;1.05;0.55;;;;;;;33.38;22.77;98087.38;5073279;28;20024;-78
2022/07/10 09:31:56;;;;;;;0.90;0.50;;;;;;;32.59;23.53;98084.66;5073031;28;20032;-79
2022/07/10 09:34:42;;;;;;;2.20;0.60;;;;;;;33.25;23.86;98090.59;5073121;28;20572;-79
2022/07/10 09:37:17;;;;;;;1.05;0.40;;;;;;;32.78;24.18;98090.91;5105171;28;20058;-79
2022/07/10 09:40:04;;;;;;;3.45;0.50;;;;;;;33.30;22.84;98089.88;5093008;28;20099;-79
2022/07/10 09:42:36;;;;;;;0.50;0.38;;;;;;;32.67;23.44;98093.56;5093226;28;20032;-78
2022/07/10 09:45:16;;;;;;;1.38;0.40;;;;;;;32.77;23.03;98097.09;5093140;28;20107;-79
2022/07/10 09:47:58;;;;;;;0.98;0.43;;;;;;;32.65;24.42;98101.81;5093438;28;20050;-79
2022/07/10 09:50:30;;;;;;;0.60;0.47;;;;;;;32.24;24.93;98108.56;5093264;28;20426;-78
2022/07/10 09:53:09;;;;;;;0.88;0.60;;;;;;;32.74;24.73;98096.78;5086058;28;20480;-78
2022/07/10 09:55:36;;;;;;;0.95;0.45;;;;;;;33.08;24.05;98100.94;5073351;28;20535;-79
2022/07/10 09:58:07;;;;;;;1.40;0.50;;;;;;;33.23;23.98;98090.31;5084216;28;20064;-78
2022/07/10 10:00:35;;;;;;;;;;;;;;;33.57;23.76;98094.38;5084600;28;20455;-78
2022/07/10 10:03:04;;;;;;;0.70;0.40;;;;;;;33.47;23.41;98092.94;5092955;28;19927;-78
2022/07/10 10:05:54;;;;;;;1.92;0.50;;;;;;;33.56;23.73;98092.06;5108856;28;20028;-78
2022/07/10 10:08:24;;;;;;;1.00;0.40;;;;;;;34.32;22.98;98091.34;5093205;28;20030;-78
2022/07/10 10:10:51;;;;;;;0.65;0.47;;;;;;;33.66;22.34;98076.38;5078284;28;20055;-78
2022/07/10 10:13:23;;;;;;;0.95;0.40;;;;;;;33.81;23.23;98075.00;5073010;28;20102;-78
2022/07/10 10:15:53;;;;;;;2.45;0.63;;;;;;;34.50;21.73;98073.88;5074233;28;20384;-78
2022/07/10 10:18:24;;;;;;;4.25;0.63;;;;;;;34.65;20.16;98076.63;5076591;28;20032;-78
2022/07/10 10:20:52;;;;;;;1.52;0.60;;;;;;;34.62;20.96;98063.38;5076437;28;20025;-78
2022/07/10 10:23:21;;;;;;;1.10;0.52;;;;;;;34.19;21.74;98053.94;5076430;28;20052;-78
2022/07/10 10:25:52;;;;;;;1.20;0.40;;;;;;;33.42;21.85;98060.25;5099656;28;20082;-78
2022/07/10 10:28:26;;;;;;;0.82;0.40;;;;;;;32.20;22.89;98071.03;5077825;28;20075;-78
2022/07/10 10:30:58;;;;;;;0.75;0.40;;;;;;;32.07;24.25;98060.75;5082465;28;20066;-78
2022/07/10 10:33:34;;;;;;;0.40;0.40;;;;;;;31.22;24.21;98057.97;5096574;28;20035;-78
2022/07/10 10:36:06;;;;;;;2.60;0.40;;;;;;;32.41;23.26;98052.78;5096806;28;20077;-78
2022/07/10 10:38:55;;;;;;;2.25;0.40;;;;;;;31.25;25.33;98054.94;5096292;28;20032;-78
2022/07/10 10:41:26;;;;;;;0.45;0.45;;;;;;;31.62;22.05;98046.97;5096712;28;20050;-78
2022/07/10 10:44:07;;;;;;;;;;;;;;;31.22;23.71;98046.63;5090310;28;20020;-78
2022/07/10 10:46:34;;;;;;;2.38;0.40;;;;;;;30.61;24.42;98056.56;5076015;28;20426;-79
2022/07/10 10:49:08;;;;;;;2.58;0.40;;;;;;;30.70;23.94;98074.31;5075939;28;20087;-79
2022/07/10 10:52:03;;;;;;;2.53;0.68;;;;;;;29.34;25.90;98068.84;5058428;28;20131;-78
2022/07/10 10:54:51;;;;;;;2.70;0.50;;;;;;;29.39;25.28;98068.25;5075856;28;20472;-78
2022/07/10 10:57:18;;;;;;;1.17;0.60;;;;;;;29.46;24.47;98064.31;5091118;28;20592;-78
2022/07/10 10:59:52;;;;;;;2.63;0.50;;;;;;;28.97;24.97;98081.34;5075687;28;20514;-78
2022/07/10 11:02:34;;;;;;;1.15;0.55;;;;;;;29.92;23.99;98087.75;5076841;28;20037;-78
2022/07/10 11:05:17;;;;;;;1.60;0.80;;;;;;;30.13;23.92;98080.31;5076008;28;20391;-77
2022/07/10 11:07:58;;;;;;;1.60;0.85;;;;;;;29.17;24.04;98078.84;5075672;28;20041;-78
2022/07/10 11:10:32;;;;;;;2.70;0.82;;;;;;;29.37;24.96;98087.72;5091192;28;20384;-78
2022/07/10 11:13:06;;;;;;;2.83;0.68;;;;;;;28.18;25.28;98084.13;5075841;28;20055;-78
2022/07/10 11:15:35;;;;;;;2.40;0.75;;;;;;;28.79;25.28;98077.69;5075827;28;20083;-78
2022/07/10 11:18:06;;;;;;;5.22;0.98;;;;;;;30.83;23.46;98076.91;5082732;28;20040;-78
2022/07/10 11:20:34;;;;;;;;;;;;;;;32.46;22.25;98077.69;5096057;28;20115;-78
2022/07/10 11:23:11;;;;;;;2.10;0.73;;;;;;;31.67;21.14;98068.22;5095378;28;19912;-78
2022/07/10 11:26:07;;;;;;;1.73;0.60;;;;;;;31.62;21.63;98072.53;5078893;28;20025;-79
2022/07/10 11:28:58;;;;;;;1.95;0.63;;;;;;;32.35;20.38;98066.16;5074715;28;20032;-78
2022/07/10 11:31:26;;;;;;;1.10;0.40;;;;;;;33.68;19.29;98057.50;5075213;28;20469;-79
2022/07/10 11:33:56;;;;;;;0.57;0.40;;;;;;;31.90;23.54;98064.53;5074999;28;20043;-78
2022/07/10 11:36:29;;;;;;;0.93;0.52;;;;;;;33.30;19.97;98060.63;5075954;28;20036;-78
2022/07/10 11:39:04;;;;;;;0.70;0.30;;;;;;;31.27;22.43;98057.31;5075392;28;20021;-79
2022/07/10 11:41:30;;;;;;;2.90;0.50;;;;;;;31.97;22.58;98059.25;5074997;28;20032;-78
2022/07/10 11:43:59;;;;;;;1.25;0.40;;;;;;;32.35;21.51;98052.69;5074946;28;20059;-78
2022/07/10 11:46:28;;;;;;;3.30;0.40;;;;;;;31.57;22.01;98061.03;5074979;28;20073;-78